createdAt,value
2023-03-22T00:01:31.044Z,96826.09
2023-03-22T00:03:58.905Z,96827.72
2023-03-22T00:06:26.838Z,96840.44
2023-03-22T00:08:54.919Z,96833.72
2023-03-22T00:11:25.681Z,96830.09
2023-03-22T00:13:53.886Z,96834.22
2023-03-22T00:16:23.215Z,96833.50
2023-03-22T00:18:50.884Z,96835.13
2023-03-22T00:21:19.214Z,96831.81
2023-03-22T00:23:46.817Z,96839.72
2023-03-22T00:26:15.474Z,96829.72
2023-03-22T00:28:43.277Z,96835.16
2023-03-22T00:31:11.369Z,96830.88
2023-03-22T00:33:40.662Z,96828.88
2023-03-22T00:36:09.986Z,96827.91
2023-03-22T00:38:43.011Z,96822.94
2023-03-22T00:41:13.284Z,96822.59
2023-03-22T00:43:41.007Z,96821.41
2023-03-22T00:46:08.980Z,96817.31
2023-03-22T00:48:36.631Z,96822.75
2023-03-22T00:51:06.507Z,96827.38
2023-03-22T00:53:35.230Z,96823.59
2023-03-22T00:56:03.251Z,96819.31
2023-03-22T00:58:30.788Z,96812.50
2023-03-22T01:00:58.445Z,96821.09
2023-03-22T01:03:26.097Z,96815.91
2023-03-22T01:05:55.407Z,96811.78
2023-03-22T01:08:24.610Z,96810.78
2023-03-22T01:10:52.323Z,96809.69
2023-03-22T01:13:19.947Z,96805.44
2023-03-22T01:15:51.234Z,96801.41
2023-03-22T01:18:18.927Z,96793.50
2023-03-22T01:20:46.541Z,96792.50
2023-03-22T01:23:14.076Z,96788.66
2023-03-22T01:25:42.990Z,96793.50
2023-03-22T01:28:10.658Z,96783.63
2023-03-22T01:30:40.293Z,96787.13
2023-03-22T01:33:08.618Z,96793.41
2023-03-22T01:35:36.659Z,96790.03
2023-03-22T01:38:04.529Z,96791.69
2023-03-22T01:40:33.396Z,96793.19
2023-03-22T01:43:02.559Z,96784.66
2023-03-22T01:45:42.797Z,96789.56
2023-03-22T01:48:15.865Z,96792.00
2023-03-22T01:50:47.263Z,96786.09
2023-03-22T01:53:15.405Z,96789.56
2023-03-22T01:55:43.571Z,96786.75
2023-03-22T01:58:12.640Z,96790.22
2023-03-22T02:00:40.635Z,96779.03
2023-03-22T02:03:08.554Z,96777.03
2023-03-22T02:05:37.077Z,96774.06
2023-03-22T02:08:04.991Z,96777.53
2023-03-22T02:10:32.768Z,96775.41
2023-03-22T02:13:14.492Z,96778.84
2023-03-22T02:15:47.062Z,96766.66
2023-03-22T02:18:26.558Z,96764.06
2023-03-22T02:21:34.892Z,96768.03
2023-03-22T02:24:14.346Z,96764.75
2023-03-22T02:27:07.453Z,96772.31
2023-03-22T02:29:44.923Z,96763.09
2023-03-22T02:32:27.768Z,96750.59
2023-03-22T02:35:09.184Z,96752.59
2023-03-22T02:37:49.238Z,96746.97
2023-03-22T02:40:22.456Z,96748.28
2023-03-22T02:42:57.195Z,96757.00
2023-03-22T02:45:32.879Z,96755.53
2023-03-22T02:48:06.983Z,96752.25
2023-03-22T02:50:40.167Z,96753.06
2023-03-22T02:53:12.517Z,96751.25
2023-03-22T02:55:45.487Z,96745.03
2023-03-22T02:58:16.461Z,96749.78
2023-03-22T03:00:45.055Z,96746.16
2023-03-22T03:03:18.164Z,96744.69
2023-03-22T03:05:46.923Z,96741.75
2023-03-22T03:08:15.420Z,96743.44
2023-03-22T03:10:44.810Z,96740.50
2023-03-22T03:13:13.885Z,96749.22
2023-03-22T03:15:42.652Z,96748.75
2023-03-22T03:18:19.612Z,96756.69
2023-03-22T03:20:57.332Z,96750.59
2023-03-22T03:23:29.531Z,96756.38
2023-03-22T03:26:04.173Z,96750.31
2023-03-22T03:28:39.224Z,96749.97
2023-03-22T03:31:24.194Z,96763.97
2023-03-22T03:33:58.704Z,96756.72
2023-03-22T03:36:27.230Z,96759.66
2023-03-22T03:38:55.869Z,96754.41
2023-03-22T03:41:26.454Z,96753.09
2023-03-22T03:43:56.005Z,96762.28
2023-03-22T03:46:24.544Z,96759.66
2023-03-22T03:48:52.771Z,96765.88
2023-03-22T03:51:20.436Z,96767.69
2023-03-22T03:53:48.130Z,96771.09
2023-03-22T03:56:15.647Z,96771.09
2023-03-22T03:58:44.581Z,96776.53
2023-03-22T04:01:12.148Z,96769.97
2023-03-22T04:03:39.711Z,96762.09
2023-03-22T04:06:08.926Z,96766.69
2023-03-22T04:08:36.514Z,96761.91
2023-03-22T04:11:04.094Z,96760.56
2023-03-22T04:13:31.701Z,96772.56
2023-03-22T04:16:02.218Z,96760.06
2023-03-22T04:18:30.145Z,96770.56
2023-03-22T04:20:58.096Z,96779.28
2023-03-22T04:23:25.973Z,96772.22
2023-03-22T04:25:54.574Z,96771.88
2023-03-22T04:28:22.124Z,96772.84
2023-03-22T04:30:51.916Z,96769.06
2023-03-22T04:33:22.876Z,96767.13
2023-03-22T04:35:56.655Z,96768.56
2023-03-22T04:38:25.243Z,96766.25
2023-03-22T04:40:52.819Z,96768.38
2023-03-22T04:43:20.421Z,96764.41
2023-03-22T04:45:48.770Z,96776.53
2023-03-22T04:48:22.276Z,96777.84
2023-03-22T04:50:53.253Z,96765.53
2023-03-22T04:53:27.157Z,96768.47
2023-03-22T04:55:56.829Z,96765.03
2023-03-22T04:58:24.858Z,96769.97
2023-03-22T05:00:53.702Z,96766.16
2023-03-22T05:03:21.580Z,96765.66
2023-03-22T05:05:54.376Z,96774.81
2023-03-22T05:08:22.606Z,96769.75
2023-03-22T05:10:50.215Z,96780.22
2023-03-22T05:13:18.329Z,96784.50
2023-03-22T05:15:47.264Z,96782.03
2023-03-22T05:18:15.386Z,96786.28
2023-03-22T05:20:43.228Z,96779.09
2023-03-22T05:23:13.708Z,96786.50
2023-03-22T05:25:45.009Z,96778.47
2023-03-22T05:28:14.141Z,96772.59
2023-03-22T05:30:42.440Z,96780.97
2023-03-22T05:33:10.639Z,96780.81
2023-03-22T05:35:40.207Z,96779.50
2023-03-22T05:38:08.980Z,96779.19
2023-03-22T05:40:38.279Z,96777.09
2023-03-22T05:43:06.274Z,96774.81
2023-03-22T05:45:33.809Z,96773.34
2023-03-22T05:48:01.899Z,96774.19
2023-03-22T05:50:29.651Z,96778.63
2023-03-22T05:52:57.362Z,96776.03
2023-03-22T05:55:24.905Z,96779.31
2023-03-22T05:57:54.748Z,96769.97
2023-03-22T06:00:23.922Z,96766.56
2023-03-22T06:02:56.264Z,96770.81
2023-03-22T06:05:24.320Z,96766.41
2023-03-22T06:07:51.850Z,96771.00
2023-03-22T06:10:19.985Z,96771.00
2023-03-22T06:12:47.619Z,96775.94
2023-03-22T06:15:16.494Z,96768.53
2023-03-22T06:17:44.063Z,96770.84
2023-03-22T06:20:14.301Z,96769.19
2023-03-22T06:22:42.209Z,96768.03
2023-03-22T06:25:11.287Z,96773.06
2023-03-22T06:27:38.954Z,96766.28
2023-03-22T06:30:08.081Z,96765.25
2023-03-22T06:32:36.945Z,96762.75
2023-03-22T06:35:04.815Z,96763.88
2023-03-22T06:37:32.346Z,96759.09
2023-03-22T06:39:59.928Z,96751.00
2023-03-22T06:42:27.558Z,96756.13
2023-03-22T06:44:55.303Z,96754.28
2023-03-22T06:47:22.905Z,96762.63
2023-03-22T06:49:51.835Z,96754.69
2023-03-22T06:52:19.526Z,96754.69
2023-03-22T06:54:47.078Z,96761.78
2023-03-22T06:57:14.639Z,96764.22
2023-03-22T06:59:42.215Z,96756.97
2023-03-22T07:02:11.828Z,96764.88
2023-03-22T07:04:39.424Z,96764.16
2023-03-22T07:07:08.378Z,96756.41
2023-03-22T07:09:35.877Z,96756.81
2023-03-22T07:12:05.110Z,96746.03
2023-03-22T07:14:33.413Z,96740.63
2023-03-22T07:17:01.467Z,96751.47
2023-03-22T07:19:29.320Z,96751.34
2023-03-22T07:21:56.862Z,96756.31
2023-03-22T07:24:25.838Z,96744.66
2023-03-22T07:26:53.375Z,96746.28
2023-03-22T07:29:21.492Z,96749.75
2023-03-22T07:31:49.176Z,96750.25
2023-03-22T07:34:17.489Z,96749.53
2023-03-22T07:36:45.034Z,96743.59
2023-03-22T07:39:12.603Z,96740.47
2023-03-22T07:41:41.456Z,96733.44
2023-03-22T07:44:17.765Z,96737.66
2023-03-22T07:46:45.855Z,96740.31
2023-03-22T07:49:13.739Z,96738.28
2023-03-22T07:51:41.527Z,96732.81
2023-03-22T07:54:09.169Z,96740.38
2023-03-22T07:56:37.177Z,96741.38
2023-03-22T07:59:06.752Z,96732.06
2023-03-22T08:01:34.922Z,96730.84
2023-03-22T08:04:02.532Z,96738.13
2023-03-22T08:06:32.764Z,96726.19
2023-03-22T08:09:00.358Z,96732.81
2023-03-22T08:11:27.860Z,96734.00
2023-03-22T08:13:55.429Z,96726.16
2023-03-22T08:16:24.467Z,96730.84
2023-03-22T08:18:52.113Z,96725.19
2023-03-22T08:21:19.755Z,96734.41
2023-03-22T08:23:48.807Z,96728.56
2023-03-22T08:26:17.706Z,96726.81
2023-03-22T08:28:45.395Z,96732.34
2023-03-22T08:31:15.323Z,96710.72
2023-03-22T08:33:45.107Z,96716.44
2023-03-22T08:36:15.161Z,96722.16
2023-03-22T08:38:44.940Z,96718.28
2023-03-22T08:41:12.741Z,96715.66
2023-03-22T08:43:40.325Z,96712.81
2023-03-22T08:46:08.569Z,96708.31
2023-03-22T08:48:37.930Z,96709.97
2023-03-22T08:51:07.610Z,96711.19
2023-03-22T08:53:35.590Z,96712.59
2023-03-22T08:56:03.865Z,96701.72
2023-03-22T08:58:31.534Z,96701.47
2023-03-22T09:00:59.144Z,96705.13
2023-03-22T09:03:26.701Z,96700.78
2023-03-22T09:05:54.608Z,96701.63
2023-03-22T09:08:23.543Z,96695.38
2023-03-22T09:10:52.115Z,96693.31
2023-03-22T09:13:20.549Z,96692.84
2023-03-22T09:15:48.970Z,96691.38
2023-03-22T09:18:16.607Z,96694.41
2023-03-22T09:20:45.714Z,96684.91
2023-03-22T09:23:15.421Z,96674.16
2023-03-22T09:25:45.908Z,96675.59
2023-03-22T09:28:13.969Z,96681.28
2023-03-22T09:30:41.915Z,96671.63
2023-03-22T09:33:10.250Z,96673.25
2023-03-22T09:35:42.555Z,96680.16
2023-03-22T09:38:10.598Z,96668.06
2023-03-22T09:40:40.637Z,96663.50
2023-03-22T09:43:10.971Z,96667.88
2023-03-22T09:45:41.674Z,96652.22
2023-03-22T09:48:15.637Z,96660.34
2023-03-22T09:50:47.319Z,96656.28
2023-03-22T09:53:17.344Z,96663.13
2023-03-22T09:55:47.514Z,96656.53
2023-03-22T09:58:22.313Z,96655.22
2023-03-22T10:00:53.911Z,96648.47
2023-03-22T10:03:30.447Z,96646.38
2023-03-22T10:06:01.676Z,96637.72
2023-03-22T10:08:45.867Z,96646.91
2023-03-22T10:11:21.089Z,96639.59
2023-03-22T10:13:57.669Z,96636.56
2023-03-22T10:16:28.569Z,96637.25
2023-03-22T10:19:01.429Z,96631.09
2023-03-22T10:21:29.030Z,96636.56
2023-03-22T10:23:58.206Z,96635.16
2023-03-22T10:26:29.599Z,96633.16
2023-03-22T10:29:04.005Z,96629.00
2023-03-22T10:31:32.871Z,96628.22
2023-03-22T10:34:03.509Z,96630.63
2023-03-22T10:36:34.805Z,96627.94
2023-03-22T10:39:06.404Z,96634.78
2023-03-22T10:41:34.795Z,96625.16
2023-03-22T10:44:04.325Z,96615.72
2023-03-22T10:46:35.893Z,96624.25
2023-03-22T10:49:04.529Z,96621.91
2023-03-22T10:51:35.559Z,96631.59
2023-03-22T10:54:03.389Z,96610.13
2023-03-22T10:56:30.995Z,96614.53
2023-03-22T10:58:58.645Z,96617.03
2023-03-22T11:01:31.299Z,96608.00
2023-03-22T11:04:01.014Z,96603.59
2023-03-22T11:06:32.864Z,96600.56
2023-03-22T11:09:02.662Z,96606.38
2023-03-22T11:11:31.620Z,96606.03
2023-03-22T11:14:06.052Z,96605.34
2023-03-22T11:16:43.387Z,96603.38
2023-03-22T11:19:15.562Z,96595.00
2023-03-22T11:21:43.461Z,96582.94
2023-03-22T11:24:14.118Z,96583.28
2023-03-22T11:26:41.973Z,96578.88
2023-03-22T11:29:17.780Z,96577.38
2023-03-22T11:32:00.529Z,96577.81
2023-03-22T11:34:30.004Z,96578.78
2023-03-22T11:37:01.475Z,96564.59
2023-03-22T11:39:30.611Z,96577.38
2023-03-22T11:42:01.173Z,96569.84
2023-03-22T11:44:29.987Z,96562.97
2023-03-22T11:47:00.565Z,96561.81
2023-03-22T11:49:35.387Z,96559.00
2023-03-22T11:52:09.943Z,96551.69
2023-03-22T11:54:38.127Z,96547.16
2023-03-22T11:57:07.359Z,96543.97
2023-03-22T11:59:39.782Z,96536.63
2023-03-22T12:02:17.257Z,96543.78
2023-03-22T12:04:45.859Z,96533.53
2023-03-22T12:07:16.370Z,96531.16
2023-03-22T12:09:46.160Z,96540.19
2023-03-22T12:12:16.595Z,96525.09
2023-03-22T12:14:48.483Z,96527.78
2023-03-22T12:17:22.638Z,96524.72
2023-03-22T12:19:54.711Z,96516.81
2023-03-22T12:22:25.843Z,96518.22
2023-03-22T12:24:53.462Z,96514.47
2023-03-22T12:27:23.102Z,96508.59
2023-03-22T12:29:54.719Z,96498.31
2023-03-22T12:32:27.041Z,96501.13
2023-03-22T12:35:01.378Z,96497.81
2023-03-22T12:37:38.952Z,96496.69
2023-03-22T12:40:15.790Z,96496.75
2023-03-22T12:42:51.794Z,96481.38
2023-03-22T12:45:24.794Z,96487.75
2023-03-22T12:47:57.428Z,96490.19
2023-03-22T12:50:29.784Z,96491.56
2023-03-22T12:52:58.538Z,96485.13
2023-03-22T12:55:28.644Z,96482.38
2023-03-22T12:57:56.891Z,96481.94
2023-03-22T13:00:29.418Z,96481.63
2023-03-22T13:03:02.438Z,96476.66
2023-03-22T13:05:31.542Z,96470.50
2023-03-22T13:08:03.581Z,96479.91
2023-03-22T13:11:04.350Z,96468.59
2023-03-22T13:13:42.726Z,96464.03
2023-03-22T13:16:45.634Z,96463.44
2023-03-22T13:19:30.187Z,96471.78
2023-03-22T13:22:18.366Z,96479.28
2023-03-22T13:25:13.676Z,96474.22
2023-03-22T13:27:43.728Z,96470.53
2023-03-22T13:30:17.233Z,96465.72
2023-03-22T13:32:51.626Z,96464.28
2023-03-22T13:35:24.199Z,96464.91
2023-03-22T13:37:52.651Z,96464.44
2023-03-22T13:40:30.939Z,96463.09
2023-03-22T13:43:11.723Z,96461.84
2023-03-22T13:45:59.197Z,96454.66
2023-03-22T13:48:34.876Z,96452.06
2023-03-22T13:51:12.069Z,96453.59
2023-03-22T13:53:43.780Z,96453.81
2023-03-22T13:56:13.401Z,96434.59
2023-03-22T13:58:52.306Z,96439.09
2023-03-22T14:01:28.953Z,96439.78
2023-03-22T14:03:58.470Z,96436.09
2023-03-22T14:06:29.258Z,96430.09
2023-03-22T14:08:59.988Z,96430.97
2023-03-22T14:11:30.582Z,96434.75
2023-03-22T14:14:01.505Z,96433.84
2023-03-22T14:16:36.346Z,96427.06
2023-03-22T14:19:05.119Z,96431.09
2023-03-22T14:21:35.662Z,96432.28
